Time;durP1;ratioP1;P1;durP2;ratioP2;P2;SDS_P1;SDS_P2;PMS_P1;PMS_P2;Temp;Humidity;BMP_temperature;BMP_pressure;BME280_temperature;BME280_humidity;BME280_pressure;Samples;Min_cycle;Max_cycle;Signal;HPM_P1;HPM_P2
2023/05/14 00:00:52;;;;;;;10.57;9.47;;;14.30;96.40;;;;;;5037042;28;20197;-77
2023/05/14 00:03:18;;;;;;;9.03;8.20;;;14.20;96.60;;;;;;5036284;28;20614;-77
2023/05/14 00:05:43;;;;;;;11.13;9.93;;;14.20;97.30;;;;;;5029156;28;20241;-72
2023/05/14 00:08:09;;;;;;;10.30;8.27;;;14.20;98.90;;;;;;5031271;28;20409;-72
2023/05/14 00:10:34;;;;;;;13.00;8.63;;;14.20;99.90;;;;;;5025242;28;20187;-74
2023/05/14 00:13:00;;;;;;;10.40;9.30;;;14.10;99.90;;;;;;5024261;28;20195;-73
2023/05/14 00:15:25;;;;;;;10.00;9.00;;;14.10;99.90;;;;;;5024564;28;20206;-72
2023/05/14 00:17:51;;;;;;;10.63;9.13;;;14.10;99.90;;;;;;5026593;28;20196;-73
2023/05/14 00:20:16;;;;;;;10.70;9.67;;;14.00;99.90;;;;;;5027724;28;20196;-73
2023/05/14 00:22:42;;;;;;;13.10;9.17;;;14.10;99.90;;;;;;5026579;28;20313;-72
2023/05/14 00:25:08;;;;;;;10.40;9.30;;;14.00;99.90;;;;;;5030763;28;20214;-74
2023/05/14 00:27:36;;;;;;;10.70;9.00;;;13.90;99.90;;;;;;5023555;28;20231;-73
2023/05/14 00:30:05;;;;;;;13.43;9.40;;;13.90;99.90;;;;;;5019211;28;20303;-73
2023/05/14 00:32:31;;;;;;;10.70;9.70;;;13.90;99.90;;;;;;5029661;28;20864;-73
2023/05/14 00:34:56;;;;;;;11.30;9.27;;;13.90;99.90;;;;;;5029038;28;20227;-73
2023/05/14 00:37:22;;;;;;;11.33;10.07;;;13.90;99.90;;;;;;5025705;28;20202;-73
2023/05/14 00:39:47;;;;;;;12.37;9.60;;;13.90;99.90;;;;;;5027930;28;20206;-73
2023/05/14 00:42:13;;;;;;;10.60;9.50;;;13.90;99.90;;;;;;5029660;28;20238;-73
2023/05/14 00:44:38;;;;;;;9.87;9.00;;;13.90;99.90;;;;;;5025902;28;20630;-73
2023/05/14 00:47:04;;;;;;;9.50;8.50;;;13.80;99.90;;;;;;5027507;28;20639;-73
2023/05/14 00:49:30;;;;;;;11.33;8.07;;;13.80;99.90;;;;;;5024056;28;20253;-73
2023/05/14 00:51:59;;;;;;;9.67;8.77;;;13.70;99.90;;;;;;5026137;28;21110;-73
2023/05/14 00:54:25;;;;;;;10.23;9.03;;;13.60;99.90;;;;;;5030841;28;20205;-73
2023/05/14 00:56:50;;;;;;;9.43;8.53;;;13.60;99.90;;;;;;5025370;28;20236;-73
2023/05/14 00:59:16;;;;;;;9.07;8.17;;;13.60;99.90;;;;;;5028176;28;20209;-74
2023/05/14 01:01:41;;;;;;;10.67;9.57;;;13.70;99.90;;;;;;5025750;28;20233;-73
2023/05/14 01:04:09;;;;;;;10.07;9.13;;;13.70;99.90;;;;;;5023709;28;20200;-74
2023/05/14 01:06:46;;;;;;;10.87;9.63;;;13.70;99.90;;;;;;5025939;28;20203;-75
2023/05/14 01:09:34;;;;;;;9.03;8.17;;;13.70;99.90;;;;;;5026862;28;20783;-74
2023/05/14 01:12:10;;;;;;;9.23;8.20;;;13.70;99.90;;;;;;5032019;28;20245;-74
2023/05/14 01:14:47;;;;;;;8.73;7.93;;;13.70;99.90;;;;;;5037423;28;20665;-74
2023/05/14 01:17:14;;;;;;;8.77;7.97;;;13.50;99.90;;;;;;5024387;28;20294;-73
2023/05/14 01:19:42;;;;;;;11.67;8.80;;;13.40;99.90;;;;;;5028377;28;20286;-75
2023/05/14 01:22:09;;;;;;;8.67;7.87;;;13.40;99.90;;;;;;5019757;28;20200;-74
2023/05/14 01:24:34;;;;;;;8.43;7.40;;;13.40;99.90;;;;;;5027416;28;20363;-73
2023/05/14 01:27:34;;;;;;;15.43;9.00;;;13.50;99.90;;;;;;5027439;28;20677;-73
2023/05/14 01:30:18;;;;;;;9.83;8.40;;;13.40;99.90;;;;;;5022251;28;20219;-74
2023/05/14 01:32:49;;;;;;;10.10;9.07;;;13.40;99.90;;;;;;5018663;28;20195;-73
2023/05/14 01:35:15;;;;;;;9.97;9.07;;;13.40;99.90;;;;;;5027035;28;20310;-72
2023/05/14 01:37:43;;;;;;;9.70;8.37;;;13.40;99.90;;;;;;5027431;28;20199;-72
2023/05/14 01:40:10;;;;;;;9.20;8.30;;;13.40;99.90;;;;;;5025067;28;20222;-73
2023/05/14 01:42:36;;;;;;;10.40;8.73;;;13.40;99.90;;;;;;5026460;28;20251;-73
2023/05/14 01:45:02;;;;;;;12.57;8.77;;;13.20;99.90;;;;;;5026429;28;20199;-73
2023/05/14 01:47:27;;;;;;;11.20;8.70;;;13.20;99.90;;;;;;5025741;28;20292;-74
2023/05/14 01:49:53;;;;;;;10.50;9.03;;;13.20;99.90;;;;;;5025477;28;20191;-73
2023/05/14 01:52:20;;;;;;;9.67;8.30;;;13.20;99.90;;;;;;5027275;28;20230;-73
2023/05/14 01:54:46;;;;;;;9.73;8.83;;;13.10;99.90;;;;;;5026861;28;20936;-74
2023/05/14 01:57:12;;;;;;;11.50;9.73;;;13.00;99.90;;;;;;5027056;28;20657;-74
2023/05/14 01:59:37;;;;;;;10.90;9.27;;;13.00;99.90;;;;;;5026484;28;20219;-74
2023/05/14 02:02:03;;;;;;;10.07;8.57;;;13.00;99.90;;;;;;5024507;28;20307;-75
2023/05/14 02:04:28;;;;;;;10.57;9.47;;;12.90;99.90;;;;;;5024448;28;20727;-74
2023/05/14 02:06:54;;;;;;;10.93;9.83;;;12.90;99.90;;;;;;5026975;28;20211;-74
2023/05/14 02:09:19;;;;;;;10.63;9.53;;;13.00;99.90;;;;;;5035796;28;20930;-73
2023/05/14 02:11:45;;;;;;;11.53;8.80;;;13.10;99.90;;;;;;5036060;28;20243;-74
2023/05/14 02:14:10;;;;;;;9.73;8.67;;;13.00;99.90;;;;;;5036265;28;20336;-74
2023/05/14 02:16:36;;;;;;;10.20;9.20;;;13.10;99.90;;;;;;5024524;28;20699;-73
2023/05/14 02:19:01;;;;;;;14.07;9.30;;;13.10;99.90;;;;;;5030809;28;20678;-74
2023/05/14 02:21:27;;;;;;;10.90;9.43;;;13.10;99.90;;;;;;5032022;28;20568;-75
2023/05/14 02:23:53;;;;;;;10.63;9.63;;;13.00;99.90;;;;;;5026872;28;20278;-73
2023/05/14 02:26:18;;;;;;;11.37;9.77;;;13.00;99.90;;;;;;5027561;28;20206;-74
2023/05/14 02:28:44;;;;;;;11.20;9.93;;;13.20;99.90;;;;;;5033785;28;20880;-74
2023/05/14 02:31:10;;;;;;;11.27;9.07;;;13.10;99.90;;;;;;5030424;28;20211;-73
2023/05/14 02:33:35;;;;;;;10.67;9.67;;;13.00;99.90;;;;;;5020435;28;20203;-73
2023/05/14 02:36:01;;;;;;;10.50;9.47;;;12.90;99.90;;;;;;5027619;28;20273;-72
2023/05/14 02:38:26;;;;;;;9.73;8.90;;;13.00;99.90;;;;;;5032034;28;20728;-72
2023/05/14 02:40:52;;;;;;;10.03;8.83;;;13.10;99.90;;;;;;5027772;28;20218;-73
2023/05/14 02:43:17;;;;;;;13.70;9.57;;;13.20;99.90;;;;;;5030668;28;20280;-71
2023/05/14 02:45:43;;;;;;;10.40;9.30;;;13.20;99.90;;;;;;5032969;28;20241;-71
2023/05/14 02:48:08;;;;;;;9.97;9.00;;;13.20;99.90;;;;;;5036016;28;20856;-72
2023/05/14 02:50:34;;;;;;;9.27;8.47;;;13.30;99.90;;;;;;5030711;28;20209;-71
2023/05/14 02:53:00;;;;;;;9.30;8.50;;;13.30;99.90;;;;;;5039899;28;20935;-72
2023/05/14 02:55:26;;;;;;;10.03;9.13;;;13.40;99.90;;;;;;5039627;28;20504;-71
2023/05/14 02:57:52;;;;;;;9.53;8.63;;;13.40;99.90;;;;;;5039778;28;20198;-70
2023/05/14 03:00:18;;;;;;;10.30;8.20;;;13.50;99.90;;;;;;5037679;28;20199;-70
2023/05/14 03:02:44;;;;;;;9.27;8.17;;;13.30;99.90;;;;;;5039329;28;20894;-69
2023/05/14 03:05:09;;;;;;;8.90;8.20;;;13.30;99.90;;;;;;5035488;28;20207;-71
2023/05/14 03:07:35;;;;;;;8.10;7.30;;;13.40;99.90;;;;;;5032107;28;20241;-70
2023/05/14 03:10:00;;;;;;;10.67;8.60;;;13.50;99.90;;;;;;5030355;28;20205;-71
2023/05/14 03:12:26;;;;;;;12.00;8.60;;;13.60;99.90;;;;;;5032382;28;20737;-72
2023/05/14 03:14:51;;;;;;;11.37;8.60;;;13.60;99.90;;;;;;5034601;28;20191;-72
2023/05/14 03:17:17;;;;;;;9.20;8.40;;;13.60;99.90;;;;;;5034719;28;20210;-72
2023/05/14 03:19:42;;;;;;;8.33;7.50;;;13.60;99.90;;;;;;5027152;28;20210;-70
2023/05/14 03:22:08;;;;;;;8.07;7.27;;;13.60;99.90;;;;;;5029124;28;20529;-70
2023/05/14 03:24:33;;;;;;;9.00;8.13;;;13.60;99.90;;;;;;5027695;28;20199;-70
2023/05/14 03:26:59;;;;;;;8.73;7.93;;;13.60;99.90;;;;;;5028447;28;20205;-70
2023/05/14 03:29:24;;;;;;;13.13;8.67;;;13.70;99.90;;;;;;5028846;28;21028;-72
2023/05/14 03:31:50;;;;;;;9.10;7.13;;;13.60;99.90;;;;;;5029008;28;20669;-72
2023/05/14 03:34:16;;;;;;;9.00;7.87;;;13.60;99.90;;;;;;5028906;28;20242;-71
2023/05/14 03:36:41;;;;;;;9.77;7.67;;;13.60;99.90;;;;;;5031705;28;20191;-71
2023/05/14 03:39:08;;;;;;;7.33;6.63;;;13.70;99.90;;;;;;5025151;28;20198;-72
2023/05/14 03:41:34;;;;;;;7.53;6.80;;;13.70;99.90;;;;;;5027737;28;20227;-71
2023/05/14 03:44:00;;;;;;;8.00;7.10;;;13.60;99.90;;;;;;5029433;28;20189;-71
2023/05/14 03:46:25;;;;;;;7.63;6.87;;;13.60;99.90;;;;;;5029559;28;20568;-71
2023/05/14 03:48:51;;;;;;;8.03;7.27;;;13.60;99.90;;;;;;5036615;28;20199;-72
2023/05/14 03:51:16;;;;;;;8.70;6.70;;;13.60;99.90;;;;;;5038961;28;20191;-72
2023/05/14 03:53:42;;;;;;;7.17;6.40;;;13.70;99.90;;;;;;5037965;28;20194;-71
2023/05/14 03:56:07;;;;;;;9.87;6.77;;;13.60;99.90;;;;;;5035775;28;20195;-70
2023/05/14 03:58:33;;;;;;;7.60;6.83;;;13.60;99.90;;;;;;5032105;28;20195;-71
2023/05/14 04:00:59;;;;;;;7.93;7.13;;;13.50;99.90;;;;;;5038497;28;20203;-71
2023/05/14 04:03:24;;;;;;;8.90;7.67;;;13.60;99.90;;;;;;5038520;28;20566;-70
2023/05/14 04:05:50;;;;;;;10.13;6.70;;;13.60;99.90;;;;;;5033776;28;20241;-70
2023/05/14 04:08:15;;;;;;;7.97;6.50;;;13.50;99.90;;;;;;5030004;28;20951;-71
2023/05/14 04:10:42;;;;;;;7.40;6.70;;;13.50;99.90;;;;;;5036473;28;20198;-71
2023/05/14 04:13:07;;;;;;;7.67;6.47;;;13.60;99.90;;;;;;5036438;28;20195;-71
2023/05/14 04:15:34;;;;;;;8.03;7.33;;;13.60;99.90;;;;;;5038392;28;20206;-71
2023/05/14 04:18:00;;;;;;;7.70;6.50;;;13.60;99.90;;;;;;5038531;28;20218;-71
2023/05/14 04:20:26;;;;;;;7.97;6.67;;;13.50;99.90;;;;;;5035343;28;20199;-71
2023/05/14 04:22:52;;;;;;;7.47;6.70;;;13.50;99.90;;;;;;5031466;28;20313;-71
2023/05/14 04:25:18;;;;;;;10.27;7.57;;;13.50;99.90;;;;;;5038139;28;20195;-72
2023/05/14 04:27:43;;;;;;;9.23;7.47;;;13.50;99.90;;;;;;5036178;28;20238;-72
2023/05/14 04:30:09;;;;;;;16.20;7.80;;;13.60;99.90;;;;;;5037657;28;20226;-71
2023/05/14 04:32:35;;;;;;;7.57;6.67;;;13.50;99.90;;;;;;5038247;28;20195;-71
2023/05/14 04:35:01;;;;;;;7.17;6.47;;;13.60;99.90;;;;;;5038136;28;20275;-71
2023/05/14 04:37:26;;;;;;;8.70;6.77;;;13.60;99.90;;;;;;5038200;28;20230;-71
2023/05/14 04:39:52;;;;;;;9.07;7.30;;;13.50;99.90;;;;;;5035841;28;20202;-71
2023/05/14 04:42:17;;;;;;;7.10;6.50;;;13.60;99.90;;;;;;5038214;28;20207;-71
2023/05/14 04:44:43;;;;;;;7.13;6.27;;;13.50;99.90;;;;;;5037724;28;20237;-73
2023/05/14 04:47:08;;;;;;;8.20;6.47;;;13.50;99.90;;;;;;5028596;28;20251;-73
2023/05/14 04:49:34;;;;;;;8.33;7.50;;;13.50;99.90;;;;;;5036834;28;20256;-72
2023/05/14 04:52:01;;;;;;;8.90;6.37;;;13.50;99.90;;;;;;5037803;28;20934;-73
2023/05/14 04:54:26;;;;;;;7.10;6.40;;;13.50;99.90;;;;;;5028710;28;20203;-72
2023/05/14 04:56:51;;;;;;;7.67;6.33;;;13.50;99.90;;;;;;5037695;28;20309;-73
2023/05/14 04:59:17;;;;;;;6.73;6.13;;;13.60;99.90;;;;;;5030105;28;20196;-73
2023/05/14 05:01:42;;;;;;;6.70;6.10;;;13.60;99.90;;;;;;5035775;28;20202;-72
2023/05/14 05:04:08;;;;;;;7.47;6.70;;;13.60;99.90;;;;;;5034274;28;20696;-70
2023/05/14 05:06:33;;;;;;;7.33;6.63;;;13.70;99.90;;;;;;5024340;28;20200;-71
2023/05/14 05:08:59;;;;;;;6.90;6.17;;;13.80;99.90;;;;;;5037770;28;20697;-69
2023/05/14 05:11:24;;;;;;;7.33;6.57;;;13.90;99.90;;;;;;5037372;28;20202;-69
2023/05/14 05:13:50;;;;;;;7.30;6.43;;;13.90;99.90;;;;;;5023744;28;20222;-72
2023/05/14 05:16:16;;;;;;;9.13;6.70;;;13.90;99.90;;;;;;5033798;28;20206;-71
2023/05/14 05:18:43;;;;;;;9.53;6.50;;;14.00;99.90;;;;;;5030773;28;20207;-72
2023/05/14 05:21:09;;;;;;;8.23;6.40;;;14.10;99.90;;;;;;5035090;28;20234;-71
2023/05/14 05:23:34;;;;;;;6.67;5.53;;;14.20;99.90;;;;;;5037228;28;20221;-72
2023/05/14 05:25:59;;;;;;;9.83;5.80;;;14.30;99.90;;;;;;5029532;28;20769;-73
2023/05/14 05:28:25;;;;;;;6.10;5.50;;;14.30;99.90;;;;;;5025438;28;20232;-73
2023/05/14 05:30:52;;;;;;;6.40;4.67;;;14.40;99.70;;;;;;5034482;28;20223;-72
2023/05/14 05:33:18;;;;;;;6.73;5.07;;;14.40;99.70;;;;;;5027118;28;20688;-74
2023/05/14 05:35:44;;;;;;;9.00;5.07;;;14.50;99.20;;;;;;5027202;28;20286;-73
2023/05/14 05:38:09;;;;;;;6.30;4.70;;;14.60;96.70;;;;;;5037094;28;20957;-73
2023/05/14 05:40:34;;;;;;;7.60;4.47;;;14.80;95.40;;;;;;5036429;28;20209;-72
2023/05/14 05:43:00;;;;;;;6.23;4.47;;;15.00;94.40;;;;;;5036553;28;20210;-72
2023/05/14 05:45:26;;;;;;;8.23;5.20;;;15.10;94.30;;;;;;5030144;28;20669;-72
2023/05/14 05:47:51;;;;;;;5.13;4.63;;;15.20;93.50;;;;;;5032087;28;20211;-72
2023/05/14 05:50:17;;;;;;;7.30;4.63;;;15.40;93.10;;;;;;5036267;28;20670;-73
2023/05/14 05:52:42;;;;;;;6.10;4.60;;;15.40;92.90;;;;;;5036299;28;20281;-72
2023/05/14 05:55:08;;;;;;;6.20;5.03;;;15.50;92.70;;;;;;5031647;28;20205;-73
2023/05/14 05:57:34;;;;;;;5.90;4.47;;;15.50;93.00;;;;;;5024970;28;20215;-72
2023/05/14 05:59:59;;;;;;;7.67;4.57;;;15.60;92.20;;;;;;5027284;28;20204;-72
2023/05/14 06:02:25;;;;;;;5.97;4.70;;;15.80;91.40;;;;;;5026078;28;20199;-73
2023/05/14 06:04:51;;;;;;;7.77;4.43;;;15.60;91.20;;;;;;5027617;28;20225;-72
2023/05/14 06:07:17;;;;;;;7.70;4.57;;;15.50;91.10;;;;;;5026459;28;20203;-71
2023/05/14 06:09:43;;;;;;;5.77;5.17;;;15.50;90.80;;;;;;5022305;28;20565;-71
2023/05/14 06:12:08;;;;;;;5.17;4.27;;;15.50;90.70;;;;;;5025046;28;20250;-71
2023/05/14 06:14:34;;;;;;;6.20;4.37;;;15.50;90.60;;;;;;5026547;28;20191;-71
2023/05/14 06:16:59;;;;;;;7.93;4.97;;;15.60;90.80;;;;;;5026339;28;20194;-70
2023/05/14 06:19:25;;;;;;;5.60;4.60;;;15.70;90.20;;;;;;5025992;28;20315;-72
2023/05/14 06:21:50;;;;;;;5.53;5.00;;;15.80;90.30;;;;;;5023243;28;20206;-71
2023/05/14 06:24:16;;;;;;;6.13;4.43;;;15.80;90.30;;;;;;5025866;28;20194;-71
2023/05/14 06:26:41;;;;;;;4.77;4.10;;;15.80;90.30;;;;;;5025978;28;20199;-71
2023/05/14 06:29:07;;;;;;;5.60;4.07;;;15.80;89.70;;;;;;5028109;28;20670;-71
2023/05/14 06:31:32;;;;;;;6.00;4.03;;;16.00;88.90;;;;;;5023796;28;20314;-69
2023/05/14 06:33:58;;;;;;;6.10;4.50;;;16.00;89.90;;;;;;5025941;28;20265;-69
2023/05/14 06:36:23;;;;;;;6.20;4.33;;;16.00;88.50;;;;;;5024151;28;20705;-69
2023/05/14 06:38:49;;;;;;;4.73;3.73;;;16.10;88.30;;;;;;5029909;28;20275;-69
2023/05/14 06:41:15;;;;;;;7.83;4.80;;;16.10;87.90;;;;;;5023196;28;20203;-70
2023/05/14 06:43:40;;;;;;;5.87;4.30;;;16.20;87.30;;;;;;5026386;28;20230;-70
2023/05/14 06:46:06;;;;;;;7.30;4.70;;;16.30;87.50;;;;;;5027090;28;20665;-70
2023/05/14 06:48:31;;;;;;;7.20;4.07;;;16.30;87.40;;;;;;5024255;28;20218;-70
2023/05/14 06:50:57;;;;;;;5.13;3.60;;;16.50;86.00;;;;;;5025930;28;20565;-69
2023/05/14 06:53:22;;;;;;;5.20;3.93;;;16.60;86.40;;;;;;5025683;28;20428;-70
2023/05/14 06:55:48;;;;;;;6.30;4.20;;;16.60;86.70;;;;;;5025581;28;20566;-70
2023/05/14 06:58:13;;;;;;;3.70;3.40;;;16.70;86.50;;;;;;5028735;28;20562;-71
2023/05/14 07:00:41;;;;;;;5.57;4.53;;;16.60;85.10;;;;;;5022932;28;20196;-70
2023/05/14 07:03:07;;;;;;;6.20;4.03;;;16.70;86.60;;;;;;5024189;28;20192;-71
2023/05/14 07:05:32;;;;;;;4.67;4.10;;;16.90;85.00;;;;;;5027839;28;20231;-72
2023/05/14 07:07:58;;;;;;;6.30;4.23;;;17.00;85.80;;;;;;5032077;28;20217;-72
2023/05/14 07:10:23;;;;;;;7.67;4.20;;;16.80;84.70;;;;;;5035442;28;20194;-71
2023/05/14 07:12:49;;;;;;;6.10;3.70;;;16.80;85.50;;;;;;5036031;28;20195;-69
2023/05/14 07:15:15;;;;;;;4.77;3.90;;;16.80;83.70;;;;;;5035238;28;20195;-69
2023/05/14 07:17:40;;;;;;;6.63;4.20;;;16.80;84.70;;;;;;5035249;28;20206;-71
2023/05/14 07:20:06;;;;;;;7.67;4.53;;;16.90;85.20;;;;;;5035075;28;20231;-71
2023/05/14 07:22:32;;;;;;;5.77;4.10;;;17.00;84.60;;;;;;5035925;28;20290;-70
2023/05/14 07:24:57;;;;;;;6.23;3.97;;;16.90;82.90;;;;;;5027399;28;20364;-71
2023/05/14 07:27:23;;;;;;;4.47;3.60;;;16.80;83.40;;;;;;5021352;28;20792;-71
2023/05/14 07:29:49;;;;;;;6.33;3.90;;;16.80;84.30;;;;;;5026474;28;20256;-72
2023/05/14 07:32:15;;;;;;;3.73;3.43;;;17.00;83.70;;;;;;5030168;28;20203;-72
2023/05/14 07:34:40;;;;;;;4.57;3.80;;;17.20;84.80;;;;;;5029217;28;20216;-72
2023/05/14 07:37:06;;;;;;;6.13;4.10;;;17.30;85.70;;;;;;5029014;28;20206;-71
2023/05/14 07:39:31;;;;;;;7.37;3.63;;;17.40;83.40;;;;;;5028526;28;20245;-71
2023/05/14 07:41:57;;;;;;;6.37;3.70;;;17.20;82.70;;;;;;5027181;28;20215;-69
2023/05/14 07:44:23;;;;;;;5.27;3.47;;;17.20;82.50;;;;;;5028401;28;20223;-69
2023/05/14 07:46:48;;;;;;;3.53;3.20;;;17.20;82.80;;;;;;5030127;28;20206;-71
2023/05/14 07:49:14;;;;;;;5.37;3.73;;;17.40;83.30;;;;;;5027012;28;20227;-69
2023/05/14 07:51:39;;;;;;;4.43;3.17;;;17.40;83.30;;;;;;5028584;28;20774;-70
2023/05/14 07:54:05;;;;;;;5.30;3.73;;;17.50;81.60;;;;;;5028756;28;20196;-70
2023/05/14 07:56:30;;;;;;;3.20;2.90;;;17.50;81.00;;;;;;5032466;28;20279;-69
2023/05/14 07:58:56;;;;;;;8.37;3.70;;;17.60;81.70;;;;;;5019524;28;20694;-69
2023/05/14 08:01:21;;;;;;;4.20;3.67;;;17.80;83.80;;;;;;5029433;28;20207;-69
2023/05/14 08:03:47;;;;;;;4.53;3.73;;;18.00;81.00;;;;;;5023720;28;20669;-71
2023/05/14 08:06:13;;;;;;;5.80;4.13;;;18.00;79.00;;;;;;5018499;28;20313;-72
2023/05/14 08:08:38;;;;;;;5.03;3.53;;;18.20;79.80;;;;;;5014961;28;20220;-76
2023/05/14 08:11:04;;;;;;;21.70;13.50;;;18.30;79.40;;;;;;5018183;28;20284;-76
2023/05/14 08:13:29;;;;;;;6.40;3.60;;;18.50;80.00;;;;;;5018288;28;20619;-75
2023/05/14 08:15:55;;;;;;;3.97;3.30;;;18.60;77.20;;;;;;5018523;28;20205;-75
2023/05/14 08:18:21;;;;;;;7.27;5.00;;;18.80;76.20;;;;;;5018642;28;20268;-76
2023/05/14 08:20:47;;;;;;;5.57;3.73;;;18.80;75.50;;;;;;5017425;28;20249;-74
2023/05/14 08:23:25;;;;;;;4.50;3.03;;;18.90;74.90;;;;;;5018951;28;20213;-77
2023/05/14 08:25:50;;;;;;;5.33;4.07;;;18.80;79.60;;;;;;5017510;28;20677;-74
2023/05/14 08:28:19;;;;;;;5.00;3.87;;;18.90;75.10;;;;;;5017570;28;20215;-77
2023/05/14 08:30:45;;;;;;;4.93;3.80;;;18.90;74.40;;;;;;5016592;28;20210;-75
2023/05/14 08:33:10;;;;;;;4.93;4.43;;;18.90;77.20;;;;;;5021545;28;20279;-76
2023/05/14 08:35:41;;;;;;;3.43;3.13;;;19.10;74.40;;;;;;5019528;28;20207;-77
2023/05/14 08:38:07;;;;;;;3.70;3.37;;;19.20;73.50;;;;;;5017467;28;20617;-77
2023/05/14 08:40:32;;;;;;;4.97;3.67;;;19.20;73.30;;;;;;5026521;28;20216;-80
2023/05/14 08:43:00;;;;;;;3.13;2.67;;;19.10;71.00;;;;;;5018431;28;20215;-79
2023/05/14 08:45:32;;;;;;;3.87;3.30;;;19.20;71.00;;;;;;5020485;28;21127;-77
2023/05/14 08:48:00;;;;;;;6.53;3.87;;;19.40;71.20;;;;;;5018027;28;20232;-79
2023/05/14 08:50:28;;;;;;;4.30;3.30;;;19.40;70.00;;;;;;5017511;28;20668;-78
2023/05/14 08:52:54;;;;;;;4.83;3.37;;;19.50;71.40;;;;;;5023980;28;20618;-77
2023/05/14 08:55:20;;;;;;;3.97;3.40;;;19.70;70.80;;;;;;5027433;28;20621;-77
2023/05/14 08:57:45;;;;;;;4.97;3.13;;;19.80;68.90;;;;;;5030930;28;20205;-77
2023/05/14 09:00:11;;;;;;;9.73;3.70;;;19.70;67.40;;;;;;5023958;28;20319;-77
2023/05/14 09:02:39;;;;;;;4.53;3.20;;;19.60;68.00;;;;;;5025618;28;20205;-76
2023/05/14 09:05:06;;;;;;;3.70;3.00;;;19.70;68.20;;;;;;5027435;28;20213;-77
2023/05/14 09:07:32;;;;;;;4.93;3.47;;;19.80;66.20;;;;;;5029969;28;20231;-77
2023/05/14 09:09:58;;;;;;;4.30;3.90;;;19.80;67.90;;;;;;5027103;28;20201;-77
2023/05/14 09:12:24;;;;;;;4.27;3.17;;;20.00;67.00;;;;;;5020855;28;20272;-80
2023/05/14 09:14:50;;;;;;;3.70;3.33;;;20.20;65.80;;;;;;5022622;28;20681;-79
2023/05/14 09:17:17;;;;;;;3.83;3.03;;;20.20;65.30;;;;;;5027689;28;20275;-78
2023/05/14 09:19:48;;;;;;;3.50;2.80;;;20.30;64.40;;;;;;5027255;28;20990;-77
2023/05/14 09:22:16;;;;;;;5.53;3.03;;;20.40;65.40;;;;;;5026985;28;20205;-78
2023/05/14 09:24:42;;;;;;;3.53;2.83;;;20.30;66.10;;;;;;5015355;28;20707;-78
2023/05/14 09:27:14;;;;;;;4.37;3.60;;;20.40;64.80;;;;;;5020100;28;20231;-78
2023/05/14 09:29:39;;;;;;;3.50;3.20;;;20.30;63.10;;;;;;5034527;28;20231;-76
2023/05/14 09:32:06;;;;;;;4.10;2.97;;;20.60;64.10;;;;;;5027972;28;20202;-86
2023/05/14 09:34:33;;;;;;;7.70;3.57;;;20.40;62.60;;;;;;5023836;28;20568;-75
2023/05/14 09:37:02;;;;;;;2.80;2.60;;;20.50;64.40;;;;;;5037803;28;20201;-75
2023/05/14 09:39:29;;;;;;;3.50;2.53;;;20.60;66.00;;;;;;5025806;28;20276;-75
2023/05/14 09:41:55;;;;;;;3.57;3.10;;;20.60;63.70;;;;;;5022092;28;20201;-76
2023/05/14 09:44:21;;;;;;;3.03;2.73;;;20.70;62.20;;;;;;5029285;28;20897;-77
2023/05/14 09:46:47;;;;;;;3.83;2.73;;;20.70;64.50;;;;;;5016337;28;20767;-81
2023/05/14 09:49:16;;;;;;;3.83;2.90;;;20.80;60.30;;;;;;5018542;28;20237;-78
2023/05/14 09:51:42;;;;;;;6.07;2.73;;;20.80;61.60;;;;;;5014427;28;20261;-74
2023/05/14 09:54:08;;;;;;;3.60;2.50;;;20.80;66.00;;;;;;5017055;28;20192;-76
2023/05/14 09:56:35;;;;;;;4.43;3.07;;;20.90;62.80;;;;;;5019317;28;20735;-77
2023/05/14 09:59:01;;;;;;;3.20;2.90;;;21.00;60.60;;;;;;5018671;28;20198;-77
2023/05/14 10:01:28;;;;;;;3.07;2.57;;;21.00;62.90;;;;;;5020685;28;20203;-76
2023/05/14 10:03:54;;;;;;;4.60;2.83;;;21.00;59.50;;;;;;5022712;28;20207;-78
2023/05/14 10:06:27;;;;;;;8.37;3.30;;;21.00;60.40;;;;;;5019817;28;20202;-77
2023/05/14 10:08:55;;;;;;;3.00;2.70;;;20.90;57.70;;;;;;5020650;28;20213;-76
2023/05/14 10:11:26;;;;;;;4.30;3.23;;;20.90;57.40;;;;;;5016417;28;20286;-75
2023/05/14 10:14:06;;;;;;;4.03;3.33;;;20.80;59.30;;;;;;5018795;28;20197;-77
2023/05/14 10:16:39;;;;;;;5.07;3.37;;;20.50;57.90;;;;;;5016561;28;20223;-77
2023/05/14 10:19:08;;;;;;;4.20;3.23;;;20.60;58.50;;;;;;5014902;28;20217;-78
2023/05/14 10:21:35;;;;;;;7.30;3.53;;;20.50;58.40;;;;;;5018053;28;20232;-77
2023/05/14 10:24:06;;;;;;;3.80;3.23;;;20.40;59.40;;;;;;5018044;28;20201;-77
2023/05/14 10:26:36;;;;;;;4.23;3.60;;;20.40;61.00;;;;;;5016546;28;20198;-77
2023/05/14 10:29:02;;;;;;;3.67;3.30;;;20.50;61.30;;;;;;5014750;28;20234;-76
2023/05/14 10:32:05;;;;;;;5.00;3.60;;;20.50;59.60;;;;;;5018309;28;20738;-75
2023/05/14 10:34:39;;;;;;;6.90;2.77;;;20.30;59.60;;;;;;4980978;28;20211;-77
2023/05/14 10:37:07;;;;;;;3.53;3.00;;;20.30;59.90;;;;;;5016293;28;20196;-76
2023/05/14 10:39:43;;;;;;;4.00;3.00;;;20.30;59.50;;;;;;5015825;28;20253;-77
2023/05/14 10:42:42;;;;;;;4.87;2.93;;;20.20;61.40;;;;;;5020226;28;20191;-76
2023/05/14 10:45:17;;;;;;;3.50;3.00;;;20.20;62.00;;;;;;4964346;28;20213;-77
2023/05/14 10:47:47;;;;;;;5.27;3.40;;;20.00;62.30;;;;;;5020685;28;20261;-76
2023/05/14 10:50:16;;;;;;;4.20;3.20;;;20.10;62.70;;;;;;5018752;28;20198;-77
2023/05/14 10:52:56;;;;;;;4.43;2.90;;;20.20;62.90;;;;;;5014842;28;20207;-77
2023/05/14 10:55:21;;;;;;;7.63;3.37;;;20.40;62.00;;;;;;5018989;28;20207;-76
2023/05/14 10:57:48;;;;;;;5.07;3.10;;;20.40;59.70;;;;;;5027032;28;20217;-76
2023/05/14 11:00:14;;;;;;;4.77;3.50;;;20.40;58.20;;;;;;5026934;28;20219;-76
2023/05/14 11:02:42;;;;;;;3.50;3.17;;;20.30;58.30;;;;;;5027807;28;20208;-76
2023/05/14 11:05:16;;;;;;;4.60;3.40;;;20.20;60.30;;;;;;5027924;28;20744;-76
2023/05/14 11:07:47;;;;;;;6.30;3.63;;;20.30;59.00;;;;;;5024960;28;20434;-76
2023/05/14 11:10:15;;;;;;;3.53;3.23;;;20.20;58.90;;;;;;5030061;28;20242;-78
2023/05/14 11:12:42;;;;;;;4.53;3.10;;;20.30;58.90;;;;;;5029866;28;20199;-75
2023/05/14 11:15:10;;;;;;;3.33;3.07;;;20.30;59.00;;;;;;5030531;28;20233;-75
2023/05/14 11:17:37;;;;;;;9.73;3.73;;;20.30;58.80;;;;;;5030381;28;20199;-75
2023/05/14 11:20:06;;;;;;;5.43;3.30;;;20.20;59.40;;;;;;5030078;28;20286;-75
2023/05/14 11:22:33;;;;;;;6.60;3.30;;;20.10;58.00;;;;;;5029975;28;20210;-75
2023/05/14 11:24:59;;;;;;;5.80;3.00;;;20.20;58.80;;;;;;5030057;28;20720;-75
2023/05/14 11:27:25;;;;;;;4.67;3.47;;;20.20;58.80;;;;;;5031651;28;20206;-74
2023/05/14 11:29:51;;;;;;;3.60;3.20;;;20.20;59.00;;;;;;5026585;28;20317;-75
2023/05/14 11:32:17;;;;;;;6.60;3.53;;;20.30;58.80;;;;;;5027195;28;20296;-76
2023/05/14 11:34:45;;;;;;;3.80;3.50;;;20.20;60.00;;;;;;5029652;28;20233;-76
2023/05/14 11:37:13;;;;;;;7.63;3.60;;;20.20;59.50;;;;;;5021480;28;20210;-75
2023/05/14 11:39:44;;;;;;;12.00;4.17;;;20.00;58.60;;;;;;5020089;28;20202;-76
2023/05/14 11:42:12;;;;;;;7.00;3.30;;;20.00;62.10;;;;;;5018768;28;20751;-78
2023/05/14 11:44:38;;;;;;;4.33;3.17;;;20.00;59.40;;;;;;5018455;28;20543;-78
2023/05/14 11:47:04;;;;;;;3.67;3.37;;;20.10;59.20;;;;;;5021041;28;20205;-76
2023/05/14 11:49:31;;;;;;;5.27;3.00;;;20.00;59.10;;;;;;5020076;28;20271;-77
2023/05/14 11:52:01;;;;;;;4.27;3.87;;;20.10;59.00;;;;;;5025387;28;20276;-75
2023/05/14 11:54:27;;;;;;;3.37;3.07;;;20.10;60.30;;;;;;5023338;28;20620;-75
2023/05/14 11:56:57;;;;;;;4.40;4.00;;;20.30;60.70;;;;;;5030798;28;20201;-76
2023/05/14 11:59:30;;;;;;;7.63;3.70;;;20.50;60.60;;;;;;5030047;28;20548;-76
2023/05/14 12:02:00;;;;;;;3.33;3.03;;;20.50;60.10;;;;;;5027962;28;20217;-77
2023/05/14 12:04:27;;;;;;;4.07;3.60;;;20.70;59.00;;;;;;5021932;28;20203;-76
2023/05/14 12:06:56;;;;;;;4.37;3.97;;;20.60;58.00;;;;;;5024088;28;20206;-76
2023/05/14 12:09:22;;;;;;;5.43;3.30;;;20.60;58.50;;;;;;5029575;28;20211;-76
2023/05/14 12:11:50;;;;;;;4.83;3.67;;;20.40;58.50;;;;;;5022889;28;20205;-77
2023/05/14 12:14:23;;;;;;;4.73;4.30;;;20.40;59.40;;;;;;5032120;28;20292;-77
2023/05/14 12:16:49;;;;;;;3.93;3.50;;;20.50;59.30;;;;;;5026771;28;20201;-77
2023/05/14 12:19:19;;;;;;;4.97;3.80;;;20.50;61.50;;;;;;5028569;28;20697;-78
2023/05/14 12:21:47;;;;;;;6.93;4.07;;;20.60;58.60;;;;;;5029079;28;20226;-78
2023/05/14 12:24:15;;;;;;;4.57;3.83;;;20.60;60.90;;;;;;5024807;28;20207;-75
2023/05/14 12:26:45;;;;;;;4.00;3.70;;;20.60;61.60;;;;;;5025682;28;20201;-77
2023/05/14 12:29:13;;;;;;;4.90;3.67;;;20.60;59.70;;;;;;5031560;28;20223;-76
2023/05/14 12:31:46;;;;;;;3.53;3.23;;;20.60;58.80;;;;;;5022451;28;20195;-76
2023/05/14 12:34:11;;;;;;;6.03;3.97;;;20.80;59.60;;;;;;5025894;28;20259;-77
2023/05/14 12:36:37;;;;;;;5.67;3.80;;;21.00;59.00;;;;;;5030442;28;20202;-78
2023/05/14 12:39:04;;;;;;;4.40;4.00;;;21.00;61.20;;;;;;5025241;28;20210;-78
2023/05/14 12:41:30;;;;;;;4.97;3.80;;;21.40;59.30;;;;;;5025797;28;20210;-79
2023/05/14 12:43:55;;;;;;;5.87;3.97;;;21.50;60.20;;;;;;5023391;28;20203;-78